Logo AVAMET
Benvolgut visitant, si us plau, ingressa Recuperar contrasenya
AVAMET paisatges

Inforatge Ador

Dades diàries. Acumulats / Últims 30 dies disponibles

Data Temperatura (°C) Humitat rel. (%) Pressió rel. (hPa) Vent (km/h) Precipitació
Mínima Mitjana Màxima Amplitud
tèrmica
Mínima Mitjana Màxima Mínima Mitjana Màxima Predom. Mitjana Ràfega
màxima
Total
(mm)
Índex-n
Mínima Mitjana Màxima Mínima Mitjana Màxima n
0 a 1
P0 max
mm 5'
Dades mensuals acumulades fins l'últim dia disponible
07/2020 21,8 22,6 23,3 26,6 28,1 31,8 37,6 15,8 39 78 91 1.012 1.017 1.023   5,1 35,4 0,0
Dades anuals acumulades fins l'últim dia disponible
2020 3,8 13,2 23,3 17,1 10,4 21,5 37,6 33,8 21 72 98 1.003 1.022 1.037   5,4 88,5 425,4
Últims 30 dies disponibles
03-07-2020 23,3     25,5     28,1 4,8 69 80 88 1.019 1.021 1.023 SSE 5,5 35,4 0,0
02-07-2020 22,8     26,2     29,7 6,9 67 81 91 1.015 1.016 1.019 ENE 5,8 25,7 0,0
01-07-2020 21,8     28,1     37,6 15,8 39 73 91 1.012 1.014 1.016 ENE 4,0 22,5 0,0
30-06-2020 23,2     25,6     28,2 5,0 69 80 88 1.015 1.017 1.019 SSE 4,7 25,7 0,0
29-06-2020 21,0     26,2     32,4 11,4 51 76 91 1.016 1.019 1.021 NE 6,0 27,4 0,0
28-06-2020 21,7     25,7     29,7 8,0 63 78 91 1.018 1.020 1.022 ENE 5,8 25,7 0,0
27-06-2020 21,5     25,7     30,4 8,9 44 72 86 1.017 1.018 1.020 NE 6,0 25,7 0,0
26-06-2020 20,6     24,6     28,5 7,9 53 74 88 1.015 1.018 1.019 ENE 6,0 25,7 0,0
25-06-2020 20,3     24,6     28,7 8,4 47 73 90 1.017 1.019 1.022 ENE 6,4 27,4 0,0
24-06-2020 19,8     23,8     27,7 7,9 60 77 89 1.019 1.020 1.022 ENE 5,0 25,7 0,0
23-06-2020 20,7     25,7     31,0 10,3 46 66 83 1.018 1.021 1.023 ENE 7,1 32,2 0,0
22-06-2020 20,3     26,3     34,0 13,7 31 67 92 1.020 1.023 1.025 ENE 4,0 29,0 0,0
21-06-2020 19,1     23,9     27,1 8,0 71 80 90 1.023 1.024 1.025 ENE 4,8 22,5 0,0
20-06-2020 19,7     24,7     30,3 10,6 56 77 92 1.021 1.023 1.024 ENE 5,6 27,4 0,0
19-06-2020 19,7     22,7     28,0 8,3 64 84 94 1.019 1.021 1.023 ENE 4,5 27,4 3,0 0,40
18-06-2020 18,5     21,7     24,9 6,4 70 84 95 1.016 1.017 1.020 ENE 5,0 30,6 0,2
17-06-2020 19,2     21,6     24,9 5,7 71 84 93 1.017 1.018 1.020 ENE 4,2 33,8 1,2
16-06-2020 19,2     21,9     25,3 6,1 63 80 91 1.018 1.020 1.021 ENE 5,6 27,4 0,0
15-06-2020 19,2     24,7     28,7 9,5 32 52 84 1.020 1.021 1.023 W 7,9 30,6 0,0
14-06-2020 17,5     24,2     30,2 12,7 30 52 77 1.018 1.020 1.022 ENE 5,0 27,4 0,0
13-06-2020 18,6     23,5     28,6 10,0 30 43 54 1.013 1.016 1.019 WNW 7,2 40,2 0,0
12-06-2020 20,2     24,3     29,1 8,9 22 45 61 1.006 1.008 1.013 WNW 7,4 38,6 0,0
11-06-2020 18,2     24,9     31,4 13,2 30 61 90 1.004 1.010 1.016 W 6,3 40,2 0,0
10-06-2020 17,4     20,9     25,3 7,9 61 74 86 1.015 1.018 1.020 W 8,4 30,6 0,0
09-06-2020 15,2     20,6     26,6 11,4 42 69 89 1.016 1.019 1.020 E 4,8 29,0 0,4
08-06-2020 15,1     18,3     20,1 5,0 72 83 94 1.014 1.016 1.019 ENE 3,1 24,1 13,2 0,55 4,00
07-06-2020 19,7     24,2     28,7 9,0 40 69 89 1.008 1.010 1.015 ENE 5,6 33,8 3,6 0,20
06-06-2020 19,7     27,1     32,7 13,0 33 50 81 1.007 1.011 1.015 WNW 7,2 33,8 0,0
05-06-2020 16,9     23,6     32,0 15,1 34 52 71 1.012 1.013 1.015 WNW 9,0 46,7 0,0
04-06-2020 17,6     22,2     28,4 10,8 42 63 82 1.006 1.008 1.012 WNW 7,7 51,5 2,2 0,20
Últims 13 mesos disponibles
06/2020 15,1 19,2 23,2 23,8 20,1 28,8 34,0 18,9 43 69 84 1.008 1.017 1.024 ENE 6,0 51,5 23,8
05/2020 12,9 16,4 20,0 21,0 18,6 25,9 32,8 19,9 49 70 87 1.008 1.020 1.030 ENE 4,9 43,5 46,6
04/2020 8,7 12,6 18,6 15,7 14,2 19,3 26,6 17,9 49 78 94 1.009 1.019 1.028 ENE 4,6 49,9 41,0
03/2020 7,1 11,0 16,4 14,2 10,4 18,1 23,4 16,3 45 72 94 1.010 1.020 1.029 WNW 6,2 80,5 114,2
02/2020 6,7 10,8 15,6 15,3 14,2 20,4 26,4 19,7 35 69 91 1.016 1.028 1.035 W 4,9 45,1 5,8
01/2020 3,8 8,2 14,6 11,5 11,4 15,9 21,6 17,8 52 76 96 1.017 1.028 1.035 W 5,6 88,5 194,0
12/2019 5,4 11,1 19,6 14,1 12,3 17,9 25,4 20,0 48 71 92 1.005 1.021 1.035 W 6,5 72,4 221,0
11/2019 6,9 12,3 20,7 15,4 14,9 19,3 26,6 19,7 48 59 79 1.001 1.014 1.021 WNW 7,4 64,4 10,8
10/2019 11,8 16,6 20,2 20,4 15,8 24,8 32,8 21,0 42 69 86 1.011 1.019 1.024 W 4,8 49,9 53,4
09/2019 14,2 20,1 23,3 23,6 22,1 27,5 34,6 20,4 49 77 93 1.013 1.020 1.026 SSE 4,8 75,9 117,8
08/2019 18,8 22,4 26,4 26,8 27,2 31,7 39,3 20,5 44 71 82 1.013 1.019 1.023 SSE 5,6 46,7 42,8
07/2019 20,8 22,9 26,3 27,2 28,3 32,0 38,3 17,5 41 67 81 1.009 1.017 1.024 SSE 6,4 58,0 0,2
06/2019 12,6 18,1 21,9 23,0 20,9 28,3 35,7 23,1 37 64 81 1.011 1.018 1.024 SSE 5,8 59,6 0,0
Tots els anys disponibles
2019 2,6 14,7 26,4 18,8 11,7 23,3 39,3 36,7 35 66 94 998 1.019 1.036 SSE 5,8 75,9 641,0
Temperatura (°C)
Humitat relativa (%)
Velocitat del vent i ràfega màxima (km/h)
Direcció del vent (°)
Pressió (hPa)
Precipitació (mm)
Nota sobre les dades: s'avisa a l'usuari de la provisionalitat i no oficialitat d'aquestes dades
Logo AVAMET blanc
Web allotjada a Sollutia
Llicència de Creative CommonsLa web d'AVAMET i els seus continguts estan subjectes a una llicència de
Reconeixement - No Comercial - Compartir igual
Últimes estacions: la Vilavella - Ptda Forns (Soci), Miramar - Platja (Inforatge), San Fulgencio - Centre & San Fulgencio - Urb. La Marina (MeteOrihuela), Ontinyent - els Gínjols (Soci), Orba (Ajuntament Soci), Xixona - Monnegre de Baix (Soci), Benifairó de la Valldigna - Cambro/Pator (Soci) - - -